Time;durP1;ratioP1;P1;durP2;ratioP2;P2;SDS_P1;SDS_P2;PMS_P1;PMS_P2;Temp;Humidity;BMP_temperature;BMP_pressure;BME280_temperature;BME280_humidity;BME280_pressure;Samples;Min_cycle;Max_cycle;Signal;HPM_P1;HPM_P2
2023/09/28 00:02:49;;;;;;;250.67;99.47;;;;;;;;;;4988110;28;20444;-46
2023/09/28 00:05:15;;;;;;;249.37;99.03;;;;;;;;;;4993738;28;20430;-47
2023/09/28 00:07:42;;;;;;;247.20;94.57;;;;;;;;;;4991639;28;20466;-47
2023/09/28 00:10:10;;;;;;;249.03;96.93;;;;;;;;;;4989837;28;20413;-47
2023/09/28 00:12:37;;;;;;;249.07;97.00;;;;;;;;;;4986269;28;20990;-47
2023/09/28 00:15:04;;;;;;;250.77;99.53;;;;;;;;;;4994195;28;20403;-46
2023/09/28 00:17:30;;;;;;;247.47;96.83;;;;;;;;;;4993476;28;20407;-47
2023/09/28 00:19:56;;;;;;;249.33;97.23;;;;;;;;;;4993926;28;20774;-46
2023/09/28 00:22:21;;;;;;;251.97;103.33;;;;;;;;;;4993765;28;20421;-46
2023/09/28 00:24:47;;;;;;;250.27;100.27;;;;;;;;;;4993769;28;20922;-47
2023/09/28 00:27:13;;;;;;;248.70;100.90;;;;;;;;;;4993990;28;20959;-47
2023/09/28 00:29:39;;;;;;;245.37;94.30;;;;;;;;;;4993831;28;20955;-47
2023/09/28 00:32:05;;;;;;;248.30;96.47;;;;;;;;;;4992845;28;20941;-47
2023/09/28 00:34:31;;;;;;;247.17;95.70;;;;;;;;;;4991396;28;20459;-48
2023/09/28 00:36:57;;;;;;;249.53;98.77;;;;;;;;;;4991347;28;20473;-46
2023/09/28 00:39:23;;;;;;;249.27;99.17;;;;;;;;;;4992033;28;21042;-46
2023/09/28 00:41:49;;;;;;;250.80;100.07;;;;;;;;;;4993331;28;20423;-46
2023/09/28 00:44:15;;;;;;;249.67;98.87;;;;;;;;;;4993343;28;20423;-47
2023/09/28 00:46:41;;;;;;;246.87;95.20;;;;;;;;;;4992677;28;20412;-48
2023/09/28 00:49:08;;;;;;;248.67;96.33;;;;;;;;;;4991029;28;20907;-47
2023/09/28 00:51:35;;;;;;;248.20;95.43;;;;;;;;;;4985177;28;21034;-47
2023/09/28 00:54:01;;;;;;;247.37;97.67;;;;;;;;;;4993296;28;20436;-46
2023/09/28 00:56:28;;;;;;;247.13;93.43;;;;;;;;;;4993300;28;20416;-47
2023/09/28 00:58:56;;;;;;;245.93;91.67;;;;;;;;;;4993320;28;20487;-46
2023/09/28 01:01:24;;;;;;;250.73;98.73;;;;;;;;;;4992902;28;20507;-47
2023/09/28 01:03:51;;;;;;;247.30;93.97;;;;;;;;;;4992620;28;20427;-47
2023/09/28 01:06:16;;;;;;;247.83;94.37;;;;;;;;;;4992348;28;20415;-47
2023/09/28 01:08:43;;;;;;;248.10;94.10;;;;;;;;;;4992187;28;20412;-47
2023/09/28 01:11:09;;;;;;;247.23;95.87;;;;;;;;;;4992940;28;20798;-47
2023/09/28 01:13:35;;;;;;;248.70;95.03;;;;;;;;;;4992447;28;20435;-47
2023/09/28 01:16:01;;;;;;;249.23;96.33;;;;;;;;;;4991812;28;20552;-46
2023/09/28 01:18:27;;;;;;;246.33;91.27;;;;;;;;;;4992010;28;20525;-47
2023/09/28 01:20:54;;;;;;;251.87;96.13;;;;;;;;;;4988835;28;20407;-48
2023/09/28 01:23:20;;;;;;;247.40;92.63;;;;;;;;;;4987336;28;20943;-46
2023/09/28 01:25:49;;;;;;;248.10;93.43;;;;;;;;;;4986220;28;20422;-47
2023/09/28 01:28:16;;;;;;;245.60;91.73;;;;;;;;;;4992641;28;20414;-47
2023/09/28 01:30:43;;;;;;;248.70;94.77;;;;;;;;;;4992470;28;20431;-47
2023/09/28 01:33:09;;;;;;;249.67;98.23;;;;;;;;;;4992622;28;20431;-48
2023/09/28 01:35:35;;;;;;;248.13;94.83;;;;;;;;;;4992623;28;20408;-47
2023/09/28 01:38:16;;;;;;;246.00;92.60;;;;;;;;;;4992539;28;20874;-48
2023/09/28 01:40:42;;;;;;;252.30;97.83;;;;;;;;;;4985607;28;20408;-47
2023/09/28 01:43:08;;;;;;;248.47;97.33;;;;;;;;;;4992692;28;20428;-46
2023/09/28 01:45:34;;;;;;;246.40;92.60;;;;;;;;;;4987065;28;20421;-47
2023/09/28 01:48:01;;;;;;;247.00;92.70;;;;;;;;;;4992484;28;20785;-47
2023/09/28 01:50:27;;;;;;;251.97;99.93;;;;;;;;;;4992314;28;20417;-48
2023/09/28 01:52:53;;;;;;;251.17;100.57;;;;;;;;;;4992269;28;20432;-47
2023/09/28 01:55:19;;;;;;;249.77;95.87;;;;;;;;;;4992057;28;20490;-47
2023/09/28 01:57:45;;;;;;;250.87;101.17;;;;;;;;;;4992480;28;20514;-46
2023/09/28 02:00:16;;;;;;;246.43;94.00;;;;;;;;;;4990208;28;20406;-47
2023/09/28 02:02:43;;;;;;;253.70;107.43;;;;;;;;;;4988508;28;20428;-47
2023/09/28 02:05:11;;;;;;;250.53;100.20;;;;;;;;;;4987094;28;20401;-48
2023/09/28 02:07:37;;;;;;;249.07;97.73;;;;;;;;;;4985405;28;20404;-48
2023/09/28 02:10:07;;;;;;;250.77;100.83;;;;;;;;;;4992220;28;20451;-47
2023/09/28 02:12:33;;;;;;;249.20;96.47;;;;;;;;;;4991932;28;20425;-47
2023/09/28 02:15:04;;;;;;;253.10;101.07;;;;;;;;;;4992236;28;20427;-47
2023/09/28 02:17:30;;;;;;;246.87;93.10;;;;;;;;;;4992117;28;20404;-48
2023/09/28 02:19:56;;;;;;;244.97;91.60;;;;;;;;;;4992091;28;20753;-46
2023/09/28 02:22:22;;;;;;;251.40;100.33;;;;;;;;;;4991868;28;20806;-48
2023/09/28 02:24:50;;;;;;;248.87;97.20;;;;;;;;;;4992385;28;20409;-47
2023/09/28 02:27:17;;;;;;;251.60;101.00;;;;;;;;;;4992267;28;20422;-47
2023/09/28 02:29:43;;;;;;;250.10;99.90;;;;;;;;;;4991877;28;20928;-47
2023/09/28 02:32:09;;;;;;;248.80;96.33;;;;;;;;;;4991844;28;20431;-48
2023/09/28 02:34:35;;;;;;;248.83;97.40;;;;;;;;;;4992218;28;20777;-47
2023/09/28 02:37:03;;;;;;;248.87;95.97;;;;;;;;;;4992185;28;20908;-47
2023/09/28 02:39:29;;;;;;;248.97;95.50;;;;;;;;;;4991588;28;20477;-46
2023/09/28 02:41:55;;;;;;;246.87;96.97;;;;;;;;;;4991690;28;20514;-46
2023/09/28 02:44:22;;;;;;;251.67;102.10;;;;;;;;;;4991764;28;20784;-47
2023/09/28 02:46:48;;;;;;;247.53;94.47;;;;;;;;;;4991920;28;20419;-46
2023/09/28 02:49:14;;;;;;;249.70;99.57;;;;;;;;;;4992448;28;20973;-47
2023/09/28 02:51:39;;;;;;;247.93;94.90;;;;;;;;;;4995251;28;20419;-46
2023/09/28 02:54:07;;;;;;;249.07;98.80;;;;;;;;;;4994300;28;20411;-47
2023/09/28 02:56:33;;;;;;;250.57;100.93;;;;;;;;;;4987525;28;20487;-47
2023/09/28 02:58:59;;;;;;;247.73;95.90;;;;;;;;;;4995187;28;20868;-46
2023/09/28 03:01:26;;;;;;;249.87;100.47;;;;;;;;;;4995071;28;20418;-46
2023/09/28 03:03:53;;;;;;;250.83;100.40;;;;;;;;;;4995398;28;20419;-47
2023/09/28 03:06:20;;;;;;;249.50;98.60;;;;;;;;;;4994884;28;20419;-47
2023/09/28 03:08:47;;;;;;;249.30;96.30;;;;;;;;;;4995225;28;20410;-47
2023/09/28 03:11:13;;;;;;;247.17;93.60;;;;;;;;;;4995063;28;20412;-48
2023/09/28 03:13:39;;;;;;;248.37;95.70;;;;;;;;;;4995109;28;20433;-47
2023/09/28 03:16:06;;;;;;;246.97;95.87;;;;;;;;;;4995250;28;20445;-48
2023/09/28 03:18:32;;;;;;;251.13;100.43;;;;;;;;;;4993821;28;20991;-47
2023/09/28 03:20:58;;;;;;;250.47;100.47;;;;;;;;;;4994888;28;20504;-47
2023/09/28 03:23:24;;;;;;;248.67;98.67;;;;;;;;;;4995015;28;20442;-47
2023/09/28 03:25:50;;;;;;;250.60;98.10;;;;;;;;;;4994981;28;20410;-48
2023/09/28 03:28:16;;;;;;;249.17;97.73;;;;;;;;;;4994743;28;20499;-47
2023/09/28 03:30:43;;;;;;;252.73;99.67;;;;;;;;;;4995500;28;20502;-47
2023/09/28 03:33:08;;;;;;;250.17;97.03;;;;;;;;;;4994787;28;20489;-47
2023/09/28 03:35:34;;;;;;;247.60;95.47;;;;;;;;;;4986720;28;20435;-47
2023/09/28 03:38:00;;;;;;;252.53;101.13;;;;;;;;;;4994569;28;20465;-48
2023/09/28 03:40:33;;;;;;;266.30;107.17;;;;;;;;;;4994301;28;20442;-49
2023/09/28 03:42:59;;;;;;;260.37;97.93;;;;;;;;;;4994638;28;20435;-47
2023/09/28 03:45:25;;;;;;;261.70;99.30;;;;;;;;;;4994428;28;20807;-48
2023/09/28 03:47:52;;;;;;;260.87;98.63;;;;;;;;;;4994619;28;20408;-48
2023/09/28 03:50:19;;;;;;;258.93;97.23;;;;;;;;;;4994170;28;20422;-48
2023/09/28 03:52:45;;;;;;;261.17;98.47;;;;;;;;;;4994205;28;20943;-47
2023/09/28 03:55:15;;;;;;;261.73;97.63;;;;;;;;;;4994241;28;20440;-47
2023/09/28 03:57:44;;;;;;;260.47;96.03;;;;;;;;;;4994306;28;20427;-46
2023/09/28 04:00:14;;;;;;;250.13;98.30;;;;;;;;;;4993848;28;20500;-48
2023/09/28 04:02:41;;;;;;;251.83;100.00;;;;;;;;;;4994146;28;20437;-48
2023/09/28 04:05:08;;;;;;;251.30;96.63;;;;;;;;;;4994174;28;20902;-47
2023/09/28 04:07:34;;;;;;;246.87;92.37;;;;;;;;;;4986202;28;20412;-47
2023/09/28 04:10:00;;;;;;;250.17;96.50;;;;;;;;;;4993998;28;20415;-48
2023/09/28 04:12:26;;;;;;;248.43;94.93;;;;;;;;;;4993676;28;20446;-46
2023/09/28 04:14:52;;;;;;;246.53;92.80;;;;;;;;;;4993999;28;20414;-47
2023/09/28 04:17:18;;;;;;;249.67;96.33;;;;;;;;;;4993948;28;20428;-48
2023/09/28 04:19:44;;;;;;;250.33;97.57;;;;;;;;;;4993835;28;20828;-47
2023/09/28 04:22:10;;;;;;;251.83;97.33;;;;;;;;;;4993403;28;20816;-48
2023/09/28 04:24:36;;;;;;;251.37;98.17;;;;;;;;;;4994233;28;20408;-48
2023/09/28 04:27:02;;;;;;;243.27;85.37;;;;;;;;;;4994019;28;20944;-48
2023/09/28 04:29:28;;;;;;;244.13;87.87;;;;;;;;;;4993620;28;20827;-46
2023/09/28 04:31:54;;;;;;;248.50;94.03;;;;;;;;;;4993462;28;20461;-46
2023/09/28 04:34:20;;;;;;;245.73;88.50;;;;;;;;;;4993679;28;20445;-47
2023/09/28 04:36:47;;;;;;;249.47;92.67;;;;;;;;;;4993593;28;20756;-47
2023/09/28 04:39:13;;;;;;;246.53;91.33;;;;;;;;;;4993366;28;21056;-47
2023/09/28 04:41:39;;;;;;;245.20;88.13;;;;;;;;;;4993219;28;20903;-48
2023/09/28 04:44:06;;;;;;;251.33;91.33;;;;;;;;;;4993551;28;20484;-46
2023/09/28 04:46:32;;;;;;;252.80;93.53;;;;;;;;;;4993469;28;20410;-47
2023/09/28 04:48:59;;;;;;;246.47;91.33;;;;;;;;;;4993185;28;20437;-46
2023/09/28 04:51:25;;;;;;;248.83;93.73;;;;;;;;;;4993008;28;20470;-47
2023/09/28 04:53:51;;;;;;;247.07;91.43;;;;;;;;;;4993119;28;20476;-47
2023/09/28 04:56:18;;;;;;;244.93;87.27;;;;;;;;;;4993557;28;20435;-48
2023/09/28 04:58:45;;;;;;;255.53;92.00;;;;;;;;;;4993336;28;20473;-47
2023/09/28 05:01:11;;;;;;;259.43;99.53;;;;;;;;;;4993015;28;20421;-47
2023/09/28 05:03:37;;;;;;;257.33;95.57;;;;;;;;;;4993520;28;20499;-47
2023/09/28 05:06:04;;;;;;;260.17;97.77;;;;;;;;;;4993529;28;20803;-47
2023/09/28 05:08:30;;;;;;;248.70;88.70;;;;;;;;;;4993136;28;20784;-47
2023/09/28 05:10:57;;;;;;;250.83;92.47;;;;;;;;;;4992924;28;20402;-47
2023/09/28 05:13:24;;;;;;;251.83;94.90;;;;;;;;;;4992278;28;20446;-48
2023/09/28 05:15:50;;;;;;;248.33;89.67;;;;;;;;;;4992883;28;20437;-47
2023/09/28 05:18:16;;;;;;;254.87;94.63;;;;;;;;;;4992615;28;20462;-48
2023/09/28 05:20:42;;;;;;;252.50;95.33;;;;;;;;;;4992692;28;20898;-48
2023/09/28 05:23:09;;;;;;;246.07;88.70;;;;;;;;;;4992796;28;20538;-47
2023/09/28 05:25:35;;;;;;;248.87;89.73;;;;;;;;;;4985037;28;20540;-48
2023/09/28 05:28:01;;;;;;;251.07;93.63;;;;;;;;;;4992658;28;20458;-46
2023/09/28 05:30:27;;;;;;;251.47;94.43;;;;;;;;;;4992617;28;20433;-48
2023/09/28 05:32:53;;;;;;;247.37;90.53;;;;;;;;;;4992470;28;20436;-47
2023/09/28 05:35:21;;;;;;;246.47;89.37;;;;;;;;;;4992976;28;20443;-47
2023/09/28 05:37:47;;;;;;;251.00;91.83;;;;;;;;;;4992527;28;20419;-47
2023/09/28 05:40:13;;;;;;;246.60;87.17;;;;;;;;;;4992716;28;20505;-46
2023/09/28 05:42:40;;;;;;;246.47;86.63;;;;;;;;;;4992332;28;21007;-47
2023/09/28 05:45:06;;;;;;;247.40;86.83;;;;;;;;;;4992464;28;20426;-48
2023/09/28 05:47:33;;;;;;;248.73;88.27;;;;;;;;;;4992387;28;20872;-48
2023/09/28 05:49:59;;;;;;;249.73;87.77;;;;;;;;;;4987863;28;20456;-47
2023/09/28 05:52:25;;;;;;;251.63;93.30;;;;;;;;;;4992131;28;20472;-47
2023/09/28 05:54:53;;;;;;;245.90;87.90;;;;;;;;;;4992432;28;20455;-47
2023/09/28 05:57:21;;;;;;;247.20;86.47;;;;;;;;;;4990752;28;20411;-46
2023/09/28 05:59:47;;;;;;;248.97;89.03;;;;;;;;;;4992400;28;20464;-48
2023/09/28 06:02:13;;;;;;;266.90;101.00;;;;;;;;;;4989458;28;20433;-46
2023/09/28 06:04:39;;;;;;;249.27;92.90;;;;;;;;;;4991935;28;20544;-47
2023/09/28 06:07:05;;;;;;;249.47;91.83;;;;;;;;;;4992417;28;20476;-47
2023/09/28 06:09:31;;;;;;;252.13;96.93;;;;;;;;;;4984265;28;20401;-47
2023/09/28 06:11:57;;;;;;;247.10;90.10;;;;;;;;;;4992017;28;20426;-47
2023/09/28 06:14:23;;;;;;;248.97;92.53;;;;;;;;;;4988597;28;20414;-46
2023/09/28 06:16:49;;;;;;;248.80;91.10;;;;;;;;;;4991897;28;20413;-47
2023/09/28 06:19:15;;;;;;;249.67;91.00;;;;;;;;;;4992035;28;20473;-48
2023/09/28 06:21:41;;;;;;;248.93;88.33;;;;;;;;;;4987493;28;20454;-48
2023/09/28 06:24:07;;;;;;;250.77;93.30;;;;;;;;;;4990685;28;20763;-47
2023/09/28 06:26:33;;;;;;;249.33;92.90;;;;;;;;;;4995824;28;20400;-49
2023/09/28 06:29:00;;;;;;;249.37;92.73;;;;;;;;;;4995742;28;20419;-46
2023/09/28 06:31:26;;;;;;;252.73;93.77;;;;;;;;;;4994977;28;20505;-47
2023/09/28 06:33:52;;;;;;;248.80;93.97;;;;;;;;;;4994806;28;20522;-48
2023/09/28 06:36:18;;;;;;;252.37;95.37;;;;;;;;;;4995832;28;20478;-46
2023/09/28 06:38:44;;;;;;;249.27;93.47;;;;;;;;;;4994145;28;20465;-47
2023/09/28 06:41:10;;;;;;;247.77;90.43;;;;;;;;;;4992368;28;20417;-47
2023/09/28 06:43:36;;;;;;;248.60;93.87;;;;;;;;;;4995175;28;20436;-47
2023/09/28 06:46:03;;;;;;;251.07;94.77;;;;;;;;;;4991447;28;20426;-48
2023/09/28 06:48:29;;;;;;;250.10;94.57;;;;;;;;;;4995425;28;20847;-47
2023/09/28 06:50:59;;;;;;;248.43;92.23;;;;;;;;;;4995222;28;20412;-46
2023/09/28 06:53:26;;;;;;;248.67;92.43;;;;;;;;;;4994339;28;20427;-46
2023/09/28 06:55:54;;;;;;;249.43;92.43;;;;;;;;;;4992449;28;20411;-48
2023/09/28 06:58:20;;;;;;;251.87;95.07;;;;;;;;;;4990678;28;20455;-46
2023/09/28 07:00:46;;;;;;;254.73;98.93;;;;;;;;;;4991986;28;20786;-46
2023/09/28 07:03:12;;;;;;;254.10;99.67;;;;;;;;;;4992291;28;20424;-46
2023/09/28 07:05:38;;;;;;;251.67;97.23;;;;;;;;;;4995397;28;20455;-48
2023/09/28 07:08:05;;;;;;;251.50;99.30;;;;;;;;;;4993750;28;20416;-48
2023/09/28 07:10:34;;;;;;;253.67;100.67;;;;;;;;;;4995140;28;20424;-48
2023/09/28 07:13:02;;;;;;;258.23;107.53;;;;;;;;;;4995398;28;20486;-47
2023/09/28 07:15:31;;;;;;;253.50;102.43;;;;;;;;;;4994968;28;20443;-48
2023/09/28 07:17:57;;;;;;;259.17;111.37;;;;;;;;;;4995071;28;20503;-47
2023/09/28 07:20:25;;;;;;;255.67;105.83;;;;;;;;;;4993578;28;21036;-48
2023/09/28 07:22:51;;;;;;;255.43;104.37;;;;;;;;;;4994350;28;20794;-47
2023/09/28 07:25:17;;;;;;;254.47;102.50;;;;;;;;;;4992638;28;20415;-48
2023/09/28 07:27:43;;;;;;;258.77;111.80;;;;;;;;;;4990146;28;20977;-47
2023/09/28 07:30:11;;;;;;;259.83;111.37;;;;;;;;;;4988737;28;20464;-47
2023/09/28 07:32:37;;;;;;;253.83;103.43;;;;;;;;;;4986855;28;20903;-47
2023/09/28 07:35:04;;;;;;;256.97;109.43;;;;;;;;;;4994121;28;20494;-48
2023/09/28 07:37:30;;;;;;;253.40;103.93;;;;;;;;;;4994502;28;20553;-48
2023/09/28 07:39:56;;;;;;;252.03;103.60;;;;;;;;;;4994402;28;20481;-47
2023/09/28 07:42:23;;;;;;;255.03;106.97;;;;;;;;;;4994313;28;20428;-48
2023/09/28 07:44:49;;;;;;;254.23;106.27;;;;;;;;;;4988453;28;20429;-47
2023/09/28 07:47:15;;;;;;;256.10;106.07;;;;;;;;;;4994499;28;20418;-48
2023/09/28 07:49:41;;;;;;;258.07;113.53;;;;;;;;;;4994245;28;20927;-47
2023/09/28 07:52:08;;;;;;;256.13;105.77;;;;;;;;;;4994127;28;20829;-46
2023/09/28 07:54:35;;;;;;;253.17;104.07;;;;;;;;;;4986478;28;20412;-48
2023/09/28 07:57:03;;;;;;;255.17;106.37;;;;;;;;;;4994459;28;20426;-47
2023/09/28 07:59:30;;;;;;;255.23;107.87;;;;;;;;;;4993985;28;20452;-47
2023/09/28 08:01:56;;;;;;;254.60;105.07;;;;;;;;;;4994182;28;21035;-47
2023/09/28 08:04:22;;;;;;;255.50;105.17;;;;;;;;;;4992930;28;20513;-47
2023/09/28 08:06:48;;;;;;;253.33;104.33;;;;;;;;;;4991496;28;20412;-47
2023/09/28 08:09:14;;;;;;;257.07;109.73;;;;;;;;;;4993737;28;20414;-48
2023/09/28 08:11:41;;;;;;;256.40;108.30;;;;;;;;;;4985149;28;20444;-46
2023/09/28 08:14:09;;;;;;;251.83;107.13;;;;;;;;;;4993996;28;20437;-47
2023/09/28 08:16:36;;;;;;;255.13;109.10;;;;;;;;;;4986372;28;20455;-46
2023/09/28 08:19:02;;;;;;;256.73;108.47;;;;;;;;;;4993599;28;20459;-47
2023/09/28 08:21:28;;;;;;;258.70;107.63;;;;;;;;;;4991792;28;20416;-46
2023/09/28 08:23:55;;;;;;;257.67;108.13;;;;;;;;;;4991943;28;20539;-48
2023/09/28 08:26:21;;;;;;;256.00;104.47;;;;;;;;;;4992854;28;20495;-47
2023/09/28 08:28:47;;;;;;;253.37;104.20;;;;;;;;;;4992768;28;20502;-47
2023/09/28 08:31:13;;;;;;;255.30;108.33;;;;;;;;;;4993491;28;20879;-48
2023/09/28 08:33:39;;;;;;;255.03;106.80;;;;;;;;;;4993573;28;20443;-47
2023/09/28 08:36:08;;;;;;;254.67;105.57;;;;;;;;;;4993645;28;20422;-47
2023/09/28 08:38:34;;;;;;;249.00;100.10;;;;;;;;;;4984164;28;20468;-47
2023/09/28 08:41:00;;;;;;;258.83;117.50;;;;;;;;;;4988976;28;20407;-47
2023/09/28 08:43:45;;;;;;;254.07;108.23;;;;;;;;;;4985578;28;20430;-46
2023/09/28 08:49:15;;;;;;;254.10;109.53;;;;;;;;;;4990674;28;20405;-47
2023/09/28 08:51:44;;;;;;;252.63;109.70;;;;;;;;;;4993127;28;20414;-48
2023/09/28 08:54:10;;;;;;;257.43;117.20;;;;;;;;;;4993420;28;20401;-47
2023/09/28 08:56:39;;;;;;;259.53;123.90;;;;;;;;;;4993426;28;20411;-47
2023/09/28 08:59:05;;;;;;;257.73;116.53;;;;;;;;;;4984040;28;20963;-47
2023/09/28 09:01:34;;;;;;;257.43;116.67;;;;;;;;;;4987109;28;20420;-47
2023/09/28 09:04:00;;;;;;;257.17;119.13;;;;;;;;;;4977188;28;20400;-47
2023/09/28 09:06:31;;;;;;;257.87;116.03;;;;;;;;;;4993279;28;20400;-46
2023/09/28 09:09:00;;;;;;;250.17;108.73;;;;;;;;;;4973721;28;20406;-48
2023/09/28 09:11:28;;;;;;;253.87;112.03;;;;;;;;;;4991298;28;20522;-47
2023/09/28 09:13:57;;;;;;;259.77;123.90;;;;;;;;;;4977804;28;20785;-47
2023/09/28 09:16:23;;;;;;;255.17;114.27;;;;;;;;;;4986307;28;20409;-48
2023/09/28 09:18:50;;;;;;;253.17;114.03;;;;;;;;;;4983269;28;20470;-47
2023/09/28 09:21:16;;;;;;;254.63;114.83;;;;;;;;;;4980127;28;20412;-47
2023/09/28 09:23:42;;;;;;;254.17;114.60;;;;;;;;;;4988958;28;20432;-49
2023/09/28 09:26:17;;;;;;;250.93;108.97;;;;;;;;;;4974793;28;20416;-47
2023/09/28 09:28:43;;;;;;;259.90;119.03;;;;;;;;;;4990213;28;20430;-47
2023/09/28 09:31:10;;;;;;;252.57;108.93;;;;;;;;;;4992302;28;20511;-48
2023/09/28 09:33:36;;;;;;;252.37;111.37;;;;;;;;;;4992526;28;20432;-47
2023/09/28 09:36:02;;;;;;;251.57;108.77;;;;;;;;;;4992615;28;20452;-48
2023/09/28 09:38:28;;;;;;;251.47;107.97;;;;;;;;;;4992313;28;20823;-47
2023/09/28 09:41:12;;;;;;;257.90;118.83;;;;;;;;;;4991997;28;20412;-48
2023/09/28 09:43:41;;;;;;;252.60;111.07;;;;;;;;;;4986002;28;20432;-47
2023/09/28 09:46:07;;;;;;;252.97;114.10;;;;;;;;;;4977600;28;20420;-48
2023/09/28 09:48:40;;;;;;;252.40;110.83;;;;;;;;;;4992217;28;20875;-47
2023/09/28 09:51:10;;;;;;;253.07;111.23;;;;;;;;;;4992366;28;20415;-47
2023/09/28 09:53:37;;;;;;;251.50;105.87;;;;;;;;;;4973283;28;20436;-48
2023/09/28 09:56:04;;;;;;;250.63;105.57;;;;;;;;;;4989168;28;20777;-48
2023/09/28 09:58:37;;;;;;;249.20;103.67;;;;;;;;;;4978430;28;21032;-48
2023/09/28 10:01:05;;;;;;;251.77;109.63;;;;;;;;;;4983942;28;20885;-47
2023/09/28 10:03:32;;;;;;;254.77;111.80;;;;;;;;;;4992131;28;20424;-49
2023/09/28 10:06:01;;;;;;;254.53;111.63;;;;;;;;;;4991988;28;20410;-47
2023/09/28 10:08:28;;;;;;;251.03;106.80;;;;;;;;;;4990775;28;20928;-49
2023/09/28 10:10:54;;;;;;;254.50;107.60;;;;;;;;;;4991756;28;20404;-47
2023/09/28 10:13:20;;;;;;;251.93;110.83;;;;;;;;;;4992044;28;20436;-47
2023/09/28 10:15:46;;;;;;;250.77;107.20;;;;;;;;;;4992244;28;20482;-47
2023/09/28 10:18:12;;;;;;;253.10;109.53;;;;;;;;;;4991936;28;20975;-48
2023/09/28 10:20:39;;;;;;;256.17;113.53;;;;;;;;;;4991726;28;20847;-47
2023/09/28 10:23:17;;;;;;;249.57;105.57;;;;;;;;;;4992083;28;20431;-48
2023/09/28 10:26:10;;;;;;;251.33;108.20;;;;;;;;;;4985158;28;20490;-49
2023/09/28 10:28:36;;;;;;;254.47;116.00;;;;;;;;;;4982584;28;20834;-47
2023/09/28 10:31:07;;;;;;;253.30;112.03;;;;;;;;;;4991671;28;20470;-48
2023/09/28 10:33:33;;;;;;;251.77;108.23;;;;;;;;;;4991864;28;20432;-48
2023/09/28 10:36:12;;;;;;;251.83;113.50;;;;;;;;;;4992065;28;20404;-48
2023/09/28 10:38:40;;;;;;;254.33;117.17;;;;;;;;;;4991846;28;20987;-48
2023/09/28 10:41:06;;;;;;;251.87;115.10;;;;;;;;;;4991545;28;20431;-48
2023/09/28 10:43:39;;;;;;;250.17;109.33;;;;;;;;;;4991445;28;20422;-49
2023/09/28 10:46:07;;;;;;;249.23;111.23;;;;;;;;;;4991942;28;20543;-48
2023/09/28 10:48:39;;;;;;;251.97;112.50;;;;;;;;;;4991707;28;20441;-47
2023/09/28 10:51:12;;;;;;;253.90;115.90;;;;;;;;;;4991179;28;20424;-48
2023/09/28 10:53:39;;;;;;;252.37;115.20;;;;;;;;;;4984217;28;20431;-47
2023/09/28 10:56:06;;;;;;;252.50;115.17;;;;;;;;;;4991652;28;20408;-48
2023/09/28 10:58:33;;;;;;;257.63;121.60;;;;;;;;;;4991842;28;20455;-48
2023/09/28 11:01:04;;;;;;;256.10;122.57;;;;;;;;;;4991453;28;20404;-48
2023/09/28 11:03:31;;;;;;;257.37;125.73;;;;;;;;;;4991616;28;20456;-49
2023/09/28 11:05:57;;;;;;;254.23;123.90;;;;;;;;;;4991691;28;20412;-48
2023/09/28 11:08:23;;;;;;;257.73;130.00;;;;;;;;;;4991309;28;20422;-49
2023/09/28 11:10:49;;;;;;;258.20;124.40;;;;;;;;;;4992585;28;20404;-47
2023/09/28 11:13:15;;;;;;;258.37;124.50;;;;;;;;;;4994878;28;20943;-48
2023/09/28 11:15:41;;;;;;;258.83;127.57;;;;;;;;;;4994978;28;20431;-47
2023/09/28 11:18:07;;;;;;;253.50;117.60;;;;;;;;;;4994721;28;20409;-49
2023/09/28 11:20:33;;;;;;;256.67;120.63;;;;;;;;;;4994838;28;20908;-49
2023/09/28 11:22:59;;;;;;;252.63;115.43;;;;;;;;;;4992518;28;20426;-48
2023/09/28 11:25:26;;;;;;;253.67;116.53;;;;;;;;;;4990941;28;20777;-47
2023/09/28 11:27:53;;;;;;;256.87;119.20;;;;;;;;;;4989536;28;20557;-49
2023/09/28 11:30:19;;;;;;;255.83;120.43;;;;;;;;;;4987459;28;20469;-47
2023/09/28 11:32:48;;;;;;;252.73;114.50;;;;;;;;;;4994586;28;20481;-48
2023/09/28 11:35:15;;;;;;;255.27;120.53;;;;;;;;;;4994759;28;20414;-49
2023/09/28 11:37:41;;;;;;;255.37;119.23;;;;;;;;;;4994552;28;20415;-49
2023/09/28 11:40:08;;;;;;;253.73;116.43;;;;;;;;;;4994618;28;20498;-48
2023/09/28 11:42:37;;;;;;;254.23;116.47;;;;;;;;;;4991714;28;20432;-49
2023/09/28 11:45:04;;;;;;;253.77;119.93;;;;;;;;;;4994502;28;20427;-49
2023/09/28 11:47:30;;;;;;;255.73;118.97;;;;;;;;;;4994464;28;20421;-49
2023/09/28 11:49:55;;;;;;;258.13;119.63;;;;;;;;;;4994439;28;20434;-48
2023/09/28 11:52:21;;;;;;;260.23;123.07;;;;;;;;;;4993882;28;20804;-49
2023/09/28 11:54:49;;;;;;;260.67;125.60;;;;;;;;;;4994304;28;20785;-48
2023/09/28 11:57:16;;;;;;;258.70;123.63;;;;;;;;;;4994412;28;20474;-47
2023/09/28 11:59:43;;;;;;;257.10;122.80;;;;;;;;;;4987506;28;20861;-48
2023/09/28 12:02:09;;;;;;;258.00;126.03;;;;;;;;;;4993615;28;20427;-48
2023/09/28 12:04:35;;;;;;;260.97;127.90;;;;;;;;;;4992083;28;20821;-49
2023/09/28 12:07:06;;;;;;;258.60;124.70;;;;;;;;;;4990601;28;20416;-48
2023/09/28 12:09:32;;;;;;;259.57;124.00;;;;;;;;;;4994110;28;20423;-48
2023/09/28 12:11:58;;;;;;;260.53;130.87;;;;;;;;;;4993739;28;20803;-48
2023/09/28 12:14:24;;;;;;;261.07;131.03;;;;;;;;;;4994019;28;20408;-47
2023/09/28 12:16:52;;;;;;;261.93;135.70;;;;;;;;;;4993977;28;20419;-49
2023/09/28 12:19:19;;;;;;;259.80;127.97;;;;;;;;;;4993572;28;20836;-48
2023/09/28 12:21:46;;;;;;;257.60;125.20;;;;;;;;;;4993457;28;20407;-49
2023/09/28 12:24:12;;;;;;;256.37;123.07;;;;;;;;;;4993734;28;20404;-47
2023/09/28 12:26:39;;;;;;;261.03;131.37;;;;;;;;;;4993784;28;20405;-48
2023/09/28 12:29:05;;;;;;;257.20;126.20;;;;;;;;;;4993487;28;20490;-47
2023/09/28 12:31:31;;;;;;;258.63;126.57;;;;;;;;;;4993281;28;20447;-49
2023/09/28 12:33:57;;;;;;;258.20;126.17;;;;;;;;;;4993507;28;20407;-49
2023/09/28 12:36:23;;;;;;;261.77;128.53;;;;;;;;;;4993798;28;20408;-48
2023/09/28 12:38:51;;;;;;;256.00;120.93;;;;;;;;;;4993271;28;20479;-49
2023/09/28 12:41:17;;;;;;;258.27;127.80;;;;;;;;;;4986783;28;20844;-47
2023/09/28 12:43:45;;;;;;;259.43;126.40;;;;;;;;;;4993444;28;20552;-47
2023/09/28 12:46:11;;;;;;;258.50;122.03;;;;;;;;;;4993378;28;20404;-49
2023/09/28 12:48:37;;;;;;;255.50;115.53;;;;;;;;;;4993073;28;20423;-48
2023/09/28 12:51:04;;;;;;;257.67;125.50;;;;;;;;;;4993091;28;20416;-48
2023/09/28 12:53:33;;;;;;;255.87;117.27;;;;;;;;;;4993070;28;20522;-47
2023/09/28 12:55:59;;;;;;;254.67;116.33;;;;;;;;;;4993312;28;20788;-47
2023/09/28 12:58:25;;;;;;;258.27;123.53;;;;;;;;;;4992767;28;20973;-48
2023/09/28 13:00:51;;;;;;;257.27;118.27;;;;;;;;;;4990908;28;20435;-48
2023/09/28 13:03:18;;;;;;;257.73;126.37;;;;;;;;;;4989491;28;20456;-49
2023/09/28 13:05:44;;;;;;;256.50;120.87;;;;;;;;;;4987991;28;20404;-49
2023/09/28 13:08:13;;;;;;;255.03;115.90;;;;;;;;;;4985229;28;20411;-47
2023/09/28 13:10:39;;;;;;;261.90;129.70;;;;;;;;;;4977431;28;20920;-48
2023/09/28 13:13:06;;;;;;;257.30;121.37;;;;;;;;;;4991380;28;20419;-48
2023/09/28 13:15:33;;;;;;;257.13;124.67;;;;;;;;;;4973329;28;20397;-48
2023/09/28 13:18:00;;;;;;;259.23;129.23;;;;;;;;;;4991596;28;20779;-47
2023/09/28 13:20:27;;;;;;;257.83;124.37;;;;;;;;;;4977314;28;20413;-47
2023/09/28 13:22:57;;;;;;;256.43;121.80;;;;;;;;;;4985812;28;20486;-47
2023/09/28 13:25:23;;;;;;;255.23;121.30;;;;;;;;;;4993489;28;20772;-48
2023/09/28 13:27:50;;;;;;;259.13;125.47;;;;;;;;;;4984192;28;20417;-49
2023/09/28 13:30:19;;;;;;;257.40;118.73;;;;;;;;;;4977364;28;20478;-48
2023/09/28 13:32:46;;;;;;;259.00;125.07;;;;;;;;;;4990327;28;20467;-48
2023/09/28 13:35:12;;;;;;;256.70;119.47;;;;;;;;;;4973193;28;20467;-48
2023/09/28 13:37:38;;;;;;;259.33;124.67;;;;;;;;;;4991712;28;20490;-48
2023/09/28 13:40:13;;;;;;;257.33;120.53;;;;;;;;;;4992340;28;20467;-48
2023/09/28 13:42:39;;;;;;;258.87;123.63;;;;;;;;;;4992155;28;20435;-48
2023/09/28 13:45:05;;;;;;;256.33;119.83;;;;;;;;;;4992401;28;20432;-48
2023/09/28 13:47:31;;;;;;;254.00;114.07;;;;;;;;;;4992320;28;20507;-47
2023/09/28 13:49:57;;;;;;;255.43;118.30;;;;;;;;;;4987343;28;20513;-48
2023/09/28 13:52:25;;;;;;;257.23;120.80;;;;;;;;;;4974600;28;20432;-49
2023/09/28 13:54:51;;;;;;;257.47;120.03;;;;;;;;;;4992715;28;20415;-48
2023/09/28 13:57:16;;;;;;;255.27;115.70;;;;;;;;;;4992138;28;20423;-49
2023/09/28 13:59:43;;;;;;;257.97;118.00;;;;;;;;;;4979442;28;20471;-48
2023/09/28 14:02:09;;;;;;;256.27;113.83;;;;;;;;;;4985641;28;20804;-48